sensor_id;sensor_type;location;lat;lon;timestamp;P1;durP1;ratioP1;P2;durP2;ratioP2
58460;SDS011;45558;37.752;-97.822;2023-05-29T07:31:45;18.27;;;3.80;;
58460;SDS011;45558;37.752;-97.822;2023-05-29T07:34:11;14.32;;;3.78;;
58460;SDS011;45558;37.752;-97.822;2023-05-29T07:36:43;14.10;;;3.08;;
58460;SDS011;45558;37.752;-97.822;2023-05-29T07:39:31;21.23;;;4.05;;
58460;SDS011;45558;37.752;-97.822;2023-05-29T07:41:57;16.42;;;3.08;;
58460;SDS011;45558;37.752;-97.822;2023-05-29T07:44:22;17.25;;;4.45;;
58460;SDS011;45558;37.752;-97.822;2023-05-29T07:46:48;10.68;;;3.17;;
58460;SDS011;45558;37.752;-97.822;2023-05-29T07:49:14;14.82;;;3.13;;
58460;SDS011;45558;37.752;-97.822;2023-05-29T07:51:40;16.65;;;3.33;;
58460;SDS011;45558;37.752;-97.822;2023-05-29T07:54:06;15.77;;;3.42;;
58460;SDS011;45558;37.752;-97.822;2023-05-29T07:56:32;18.30;;;4.63;;
58460;SDS011;45558;37.752;-97.822;2023-05-29T07:59:01;12.18;;;3.25;;
58460;SDS011;45558;37.752;-97.822;2023-05-29T08:01:28;28.58;;;5.00;;
58460;SDS011;45558;37.752;-97.822;2023-05-29T08:03:54;17.02;;;3.53;;
58460;SDS011;45558;37.752;-97.822;2023-05-29T08:06:20;18.67;;;4.03;;
58460;SDS011;45558;37.752;-97.822;2023-05-29T08:08:47;18.42;;;4.32;;
58460;SDS011;45558;37.752;-97.822;2023-05-29T08:11:13;14.40;;;4.10;;
58460;SDS011;45558;37.752;-97.822;2023-05-29T08:13:38;13.65;;;3.88;;
58460;SDS011;45558;37.752;-97.822;2023-05-29T08:16:04;16.38;;;4.68;;
58460;SDS011;45558;37.752;-97.822;2023-05-29T08:18:31;14.02;;;3.80;;
58460;SDS011;45558;37.752;-97.822;2023-05-29T08:20:58;13.02;;;3.53;;
58460;SDS011;45558;37.752;-97.822;2023-05-29T08:23:24;17.67;;;4.38;;
58460;SDS011;45558;37.752;-97.822;2023-05-29T08:25:50;11.38;;;3.67;;
58460;SDS011;45558;37.752;-97.822;2023-05-29T08:28:16;15.63;;;3.42;;
58460;SDS011;45558;37.752;-97.822;2023-05-29T08:30:42;12.30;;;3.65;;
58460;SDS011;45558;37.752;-97.822;2023-05-29T08:33:08;14.18;;;3.30;;
58460;SDS011;45558;37.752;-97.822;2023-05-29T08:35:34;15.38;;;3.60;;
58460;SDS011;45558;37.752;-97.822;2023-05-29T08:38:00;24.15;;;4.20;;
58460;SDS011;45558;37.752;-97.822;2023-05-29T08:40:26;15.05;;;3.88;;
58460;SDS011;45558;37.752;-97.822;2023-05-29T08:43:37;18.27;;;4.65;;
58460;SDS011;45558;37.752;-97.822;2023-05-29T08:45:51;19.13;;;3.97;;
58460;SDS011;45558;37.752;-97.822;2023-05-29T08:48:19;17.65;;;4.88;;
58460;SDS011;45558;37.752;-97.822;2023-05-29T08:50:48;15.45;;;4.35;;
58460;SDS011;45558;37.752;-97.822;2023-05-29T08:53:14;19.00;;;4.18;;
58460;SDS011;45558;37.752;-97.822;2023-05-29T08:55:41;14.90;;;4.53;;
58460;SDS011;45558;37.752;-97.822;2023-05-29T08:58:07;44.10;;;5.30;;
58460;SDS011;45558;37.752;-97.822;2023-05-29T09:00:35;23.58;;;4.80;;
58460;SDS011;45558;37.752;-97.822;2023-05-29T09:03:01;19.90;;;4.60;;
58460;SDS011;45558;37.752;-97.822;2023-05-29T09:05:28;12.85;;;4.63;;
58460;SDS011;45558;37.752;-97.822;2023-05-29T09:07:56;15.50;;;4.35;;
58460;SDS011;45558;37.752;-97.822;2023-05-29T09:10:22;14.05;;;4.05;;
58460;SDS011;45558;37.752;-97.822;2023-05-29T09:12:48;14.60;;;4.20;;
58460;SDS011;45558;37.752;-97.822;2023-05-29T09:15:17;18.52;;;5.22;;
58460;SDS011;45558;37.752;-97.822;2023-05-29T09:17:53;12.40;;;3.97;;
58460;SDS011;45558;37.752;-97.822;2023-05-29T09:20:21;13.32;;;4.50;;
58460;SDS011;45558;37.752;-97.822;2023-05-29T09:22:54;11.98;;;3.75;;
58460;SDS011;45558;37.752;-97.822;2023-05-29T09:28:42;16.45;;;4.38;;
58460;SDS011;45558;37.752;-97.822;2023-05-29T09:31:14;17.35;;;4.70;;
58460;SDS011;45558;37.752;-97.822;2023-05-29T09:33:48;14.23;;;4.43;;
58460;SDS011;45558;37.752;-97.822;2023-05-29T09:36:20;15.23;;;4.80;;
58460;SDS011;45558;37.752;-97.822;2023-05-29T09:38:50;15.98;;;4.35;;
58460;SDS011;45558;37.752;-97.822;2023-05-29T09:41:22;23.40;;;4.90;;
58460;SDS011;45558;37.752;-97.822;2023-05-29T09:43:49;14.68;;;5.32;;
58460;SDS011;45558;37.752;-97.822;2023-05-29T09:46:16;15.85;;;4.53;;
58460;SDS011;45558;37.752;-97.822;2023-05-29T09:48:45;19.50;;;4.20;;
58460;SDS011;45558;37.752;-97.822;2023-05-29T09:51:19;12.07;;;4.03;;
58460;SDS011;45558;37.752;-97.822;2023-05-29T09:53:49;15.25;;;4.10;;
58460;SDS011;45558;37.752;-97.822;2023-05-29T09:56:18;14.47;;;3.70;;
58460;SDS011;45558;37.752;-97.822;2023-05-29T09:58:50;11.75;;;3.70;;
58460;SDS011;45558;37.752;-97.822;2023-05-29T10:01:16;11.25;;;4.10;;
58460;SDS011;45558;37.752;-97.822;2023-05-29T10:03:43;11.38;;;4.50;;
58460;SDS011;45558;37.752;-97.822;2023-05-29T10:06:10;16.23;;;4.47;;
58460;SDS011;45558;37.752;-97.822;2023-05-29T10:08:41;16.75;;;4.70;;
58460;SDS011;45558;37.752;-97.822;2023-05-29T10:11:14;14.35;;;4.00;;
58460;SDS011;45558;37.752;-97.822;2023-05-29T10:13:41;12.07;;;3.22;;
58460;SDS011;45558;37.752;-97.822;2023-05-29T10:16:13;14.70;;;3.78;;
58460;SDS011;45558;37.752;-97.822;2023-05-29T10:18:43;17.23;;;3.88;;
58460;SDS011;45558;37.752;-97.822;2023-05-29T10:21:15;18.35;;;4.50;;
58460;SDS011;45558;37.752;-97.822;2023-05-29T10:23:43;14.20;;;4.40;;
58460;SDS011;45558;37.752;-97.822;2023-05-29T10:26:15;18.65;;;4.63;;
58460;SDS011;45558;37.752;-97.822;2023-05-29T10:28:49;32.30;;;6.35;;
58460;SDS011;45558;37.752;-97.822;2023-05-29T10:34:38;20.83;;;6.78;;
58460;SDS011;45558;37.752;-97.822;2023-05-29T10:39:33;14.35;;;4.20;;
58460;SDS011;45558;37.752;-97.822;2023-05-29T10:41:59;12.50;;;3.75;;
58460;SDS011;45558;37.752;-97.822;2023-05-29T10:47:01;11.93;;;3.85;;
58460;SDS011;45558;37.752;-97.822;2023-05-29T10:49:30;12.63;;;3.30;;
58460;SDS011;45558;37.752;-97.822;2023-05-29T10:51:57;12.68;;;3.22;;
58460;SDS011;45558;37.752;-97.822;2023-05-29T10:54:24;13.95;;;3.78;;
58460;SDS011;45558;37.752;-97.822;2023-05-29T10:57:23;21.85;;;4.63;;
58460;SDS011;45558;37.752;-97.822;2023-05-29T10:59:44;15.13;;;3.67;;
58460;SDS011;45558;37.752;-97.822;2023-05-29T11:02:10;10.10;;;3.60;;
58460;SDS011;45558;37.752;-97.822;2023-05-29T11:04:36;48.33;;;5.68;;
58460;SDS011;45558;37.752;-97.822;2023-05-29T11:07:02;17.70;;;3.80;;
58460;SDS011;45558;37.752;-97.822;2023-05-29T11:09:38;22.30;;;4.33;;
58460;SDS011;45558;37.752;-97.822;2023-05-29T11:12:21;24.13;;;3.75;;
58460;SDS011;45558;37.752;-97.822;2023-05-29T11:15:07;6.45;;;2.50;;
58460;SDS011;45558;37.752;-97.822;2023-05-29T11:20:06;13.95;;;3.30;;
58460;SDS011;45558;37.752;-97.822;2023-05-29T11:25:14;8.30;;;3.53;;
58460;SDS011;45558;37.752;-97.822;2023-05-29T11:27:41;20.38;;;7.05;;
58460;SDS011;45558;37.752;-97.822;2023-05-29T11:30:08;10.00;;;2.80;;
58460;SDS011;45558;37.752;-97.822;2023-05-29T11:32:36;16.55;;;3.08;;
58460;SDS011;45558;37.752;-97.822;2023-05-29T11:35:07;16.55;;;3.53;;
58460;SDS011;45558;37.752;-97.822;2023-05-29T11:37:42;14.88;;;3.22;;
58460;SDS011;45558;37.752;-97.822;2023-05-29T11:40:11;17.98;;;3.20;;
58460;SDS011;45558;37.752;-97.822;2023-05-29T11:42:41;12.88;;;3.13;;
58460;SDS011;45558;37.752;-97.822;2023-05-29T11:45:15;13.25;;;3.38;;
58460;SDS011;45558;37.752;-97.822;2023-05-29T11:48:17;11.57;;;2.90;;
58460;SDS011;45558;37.752;-97.822;2023-05-29T11:50:36;18.80;;;4.13;;
58460;SDS011;45558;37.752;-97.822;2023-05-29T11:53:01;14.45;;;3.45;;
58460;SDS011;45558;37.752;-97.822;2023-05-29T11:55:27;14.43;;;3.15;;
58460;SDS011;45558;37.752;-97.822;2023-05-29T11:57:57;17.83;;;3.72;;
58460;SDS011;45558;37.752;-97.822;2023-05-29T12:00:24;11.15;;;3.20;;
58460;SDS011;45558;37.752;-97.822;2023-05-29T12:02:50;12.35;;;3.30;;
58460;SDS011;45558;37.752;-97.822;2023-05-29T12:05:17;32.47;;;4.20;;
58460;SDS011;45558;37.752;-97.822;2023-05-29T12:07:50;21.45;;;3.10;;
58460;SDS011;45558;37.752;-97.822;2023-05-29T12:10:18;11.82;;;3.45;;
58460;SDS011;45558;37.752;-97.822;2023-05-29T12:12:51;14.02;;;3.92;;
58460;SDS011;45558;37.752;-97.822;2023-05-29T12:15:21;13.93;;;4.07;;
58460;SDS011;45558;37.752;-97.822;2023-05-29T12:17:50;11.48;;;3.58;;
58460;SDS011;45558;37.752;-97.822;2023-05-29T12:20:17;10.30;;;3.38;;
58460;SDS011;45558;37.752;-97.822;2023-05-29T12:22:44;14.43;;;4.05;;
58460;SDS011;45558;37.752;-97.822;2023-05-29T12:25:20;8.95;;;3.17;;
58460;SDS011;45558;37.752;-97.822;2023-05-29T12:27:47;10.88;;;3.58;;
58460;SDS011;45558;37.752;-97.822;2023-05-29T12:30:14;14.32;;;3.33;;
58460;SDS011;45558;37.752;-97.822;2023-05-29T12:32:43;14.05;;;3.15;;
58460;SDS011;45558;37.752;-97.822;2023-05-29T12:40:21;13.00;;;3.40;;
58460;SDS011;45558;37.752;-97.822;2023-05-29T12:42:48;10.70;;;3.33;;
58460;SDS011;45558;37.752;-97.822;2023-05-29T12:45:19;8.10;;;3.08;;
58460;SDS011;45558;37.752;-97.822;2023-05-29T12:47:49;9.70;;;3.10;;
58460;SDS011;45558;37.752;-97.822;2023-05-29T12:50:22;10.80;;;2.95;;
58460;SDS011;45558;37.752;-97.822;2023-05-29T12:52:59;8.50;;;2.67;;
58460;SDS011;45558;37.752;-97.822;2023-05-29T12:55:28;8.45;;;2.28;;
58460;SDS011;45558;37.752;-97.822;2023-05-29T12:57:55;9.27;;;3.08;;
58460;SDS011;45558;37.752;-97.822;2023-05-29T13:00:21;12.52;;;3.03;;
58460;SDS011;45558;37.752;-97.822;2023-05-29T13:02:47;13.77;;;3.08;;
58460;SDS011;45558;37.752;-97.822;2023-05-29T13:05:14;13.90;;;2.40;;
58460;SDS011;45558;37.752;-97.822;2023-05-29T13:07:41;19.13;;;3.00;;
58460;SDS011;45558;37.752;-97.822;2023-05-29T13:10:10;12.65;;;2.88;;
58460;SDS011;45558;37.752;-97.822;2023-05-29T13:12:36;12.68;;;2.60;;
58460;SDS011;45558;37.752;-97.822;2023-05-29T13:15:01;11.98;;;2.72;;
58460;SDS011;45558;37.752;-97.822;2023-05-29T13:17:28;14.60;;;3.20;;
58460;SDS011;45558;37.752;-97.822;2023-05-29T13:19:53;7.47;;;2.50;;
58460;SDS011;45558;37.752;-97.822;2023-05-29T13:22:19;10.52;;;2.30;;
58460;SDS011;45558;37.752;-97.822;2023-05-29T13:24:45;10.48;;;2.80;;
58460;SDS011;45558;37.752;-97.822;2023-05-29T13:27:11;11.45;;;2.90;;
58460;SDS011;45558;37.752;-97.822;2023-05-29T13:29:42;12.50;;;2.33;;
58460;SDS011;45558;37.752;-97.822;2023-05-29T13:32:08;14.05;;;2.95;;
58460;SDS011;45558;37.752;-97.822;2023-05-29T13:34:34;10.50;;;2.50;;
58460;SDS011;45558;37.752;-97.822;2023-05-29T13:37:00;10.18;;;2.75;;
58460;SDS011;45558;37.752;-97.822;2023-05-29T13:39:27;10.80;;;3.00;;
58460;SDS011;45558;37.752;-97.822;2023-05-29T13:41:53;14.90;;;3.40;;
58460;SDS011;45558;37.752;-97.822;2023-05-29T13:44:19;36.75;;;4.25;;
58460;SDS011;45558;37.752;-97.822;2023-05-29T13:46:45;8.52;;;2.58;;
58460;SDS011;45558;37.752;-97.822;2023-05-29T13:49:11;7.85;;;2.65;;
58460;SDS011;45558;37.752;-97.822;2023-05-29T13:51:36;16.15;;;2.95;;
58460;SDS011;45558;37.752;-97.822;2023-05-29T13:54:02;14.23;;;3.08;;
58460;SDS011;45558;37.752;-97.822;2023-05-29T13:56:29;8.93;;;2.33;;
58460;SDS011;45558;37.752;-97.822;2023-05-29T13:58:54;14.00;;;2.75;;
58460;SDS011;45558;37.752;-97.822;2023-05-29T14:01:22;8.45;;;3.20;;
58460;SDS011;45558;37.752;-97.822;2023-05-29T14:03:49;9.55;;;3.22;;
58460;SDS011;45558;37.752;-97.822;2023-05-29T14:06:15;9.73;;;2.88;;
58460;SDS011;45558;37.752;-97.822;2023-05-29T14:08:41;18.33;;;2.80;;
58460;SDS011;45558;37.752;-97.822;2023-05-29T14:11:06;10.88;;;2.38;;
58460;SDS011;45558;37.752;-97.822;2023-05-29T14:13:33;39.30;;;3.60;;
58460;SDS011;45558;37.752;-97.822;2023-05-29T14:15:58;6.65;;;2.08;;
58460;SDS011;45558;37.752;-97.822;2023-05-29T14:18:24;9.85;;;2.53;;
58460;SDS011;45558;37.752;-97.822;2023-05-29T14:20:50;10.18;;;2.50;;
58460;SDS011;45558;37.752;-97.822;2023-05-29T14:23:18;9.02;;;1.90;;
58460;SDS011;45558;37.752;-97.822;2023-05-29T14:25:44;16.98;;;2.22;;
58460;SDS011;45558;37.752;-97.822;2023-05-29T14:28:10;13.30;;;2.78;;
58460;SDS011;45558;37.752;-97.822;2023-05-29T14:30:39;5.40;;;2.30;;
58460;SDS011;45558;37.752;-97.822;2023-05-29T14:33:05;14.20;;;2.38;;
58460;SDS011;45558;37.752;-97.822;2023-05-29T14:35:30;6.43;;;2.42;;
58460;SDS011;45558;37.752;-97.822;2023-05-29T14:37:56;8.82;;;2.03;;
58460;SDS011;45558;37.752;-97.822;2023-05-29T14:40:23;8.95;;;2.72;;
58460;SDS011;45558;37.752;-97.822;2023-05-29T14:42:48;7.90;;;2.55;;
58460;SDS011;45558;37.752;-97.822;2023-05-29T14:45:16;6.20;;;1.67;;
58460;SDS011;45558;37.752;-97.822;2023-05-29T14:47:42;6.05;;;2.35;;
58460;SDS011;45558;37.752;-97.822;2023-05-29T14:50:08;6.10;;;1.70;;
58460;SDS011;45558;37.752;-97.822;2023-05-29T14:52:34;7.80;;;2.58;;
58460;SDS011;45558;37.752;-97.822;2023-05-29T14:58:21;19.48;;;3.05;;
58460;SDS011;45558;37.752;-97.822;2023-05-29T15:00:47;9.90;;;3.20;;
58460;SDS011;45558;37.752;-97.822;2023-05-29T15:03:13;9.77;;;2.08;;
58460;SDS011;45558;37.752;-97.822;2023-05-29T15:05:39;14.43;;;2.45;;
58460;SDS011;45558;37.752;-97.822;2023-05-29T15:08:04;16.67;;;3.33;;
58460;SDS011;45558;37.752;-97.822;2023-05-29T15:10:30;18.08;;;2.67;;
58460;SDS011;45558;37.752;-97.822;2023-05-29T15:12:56;13.55;;;3.42;;
58460;SDS011;45558;37.752;-97.822;2023-05-29T15:15:25;7.93;;;2.33;;
58460;SDS011;45558;37.752;-97.822;2023-05-29T15:17:52;16.45;;;5.93;;
58460;SDS011;45558;37.752;-97.822;2023-05-29T15:20:21;8.07;;;2.17;;
58460;SDS011;45558;37.752;-97.822;2023-05-29T15:22:48;6.43;;;2.10;;
58460;SDS011;45558;37.752;-97.822;2023-05-29T15:25:14;9.18;;;2.90;;
58460;SDS011;45558;37.752;-97.822;2023-05-29T15:27:41;10.63;;;2.20;;
58460;SDS011;45558;37.752;-97.822;2023-05-29T15:30:08;12.30;;;2.65;;
58460;SDS011;45558;37.752;-97.822;2023-05-29T15:32:41;6.50;;;2.15;;
58460;SDS011;45558;37.752;-97.822;2023-05-29T15:35:07;5.72;;;1.88;;
58460;SDS011;45558;37.752;-97.822;2023-05-29T15:37:34;9.80;;;2.35;;
58460;SDS011;45558;37.752;-97.822;2023-05-29T15:40:00;7.43;;;2.03;;
58460;SDS011;45558;37.752;-97.822;2023-05-29T15:42:26;8.95;;;2.08;;
58460;SDS011;45558;37.752;-97.822;2023-05-29T15:44:52;9.15;;;2.38;;
58460;SDS011;45558;37.752;-97.822;2023-05-29T15:47:18;5.65;;;2.00;;
58460;SDS011;45558;37.752;-97.822;2023-05-29T15:49:44;10.30;;;2.50;;
58460;SDS011;45558;37.752;-97.822;2023-05-29T15:52:09;11.43;;;3.00;;
58460;SDS011;45558;37.752;-97.822;2023-05-29T15:54:35;13.88;;;2.03;;
58460;SDS011;45558;37.752;-97.822;2023-05-29T15:57:01;6.43;;;2.05;;
58460;SDS011;45558;37.752;-97.822;2023-05-29T15:59:28;4.78;;;2.10;;
58460;SDS011;45558;37.752;-97.822;2023-05-29T16:01:54;8.43;;;2.42;;
58460;SDS011;45558;37.752;-97.822;2023-05-29T16:04:20;9.43;;;2.40;;
58460;SDS011;45558;37.752;-97.822;2023-05-29T16:06:45;8.80;;;2.03;;
58460;SDS011;45558;37.752;-97.822;2023-05-29T16:09:11;9.00;;;2.58;;
58460;SDS011;45558;37.752;-97.822;2023-05-29T16:11:38;7.03;;;2.35;;
58460;SDS011;45558;37.752;-97.822;2023-05-29T16:14:04;6.45;;;2.10;;
58460;SDS011;45558;37.752;-97.822;2023-05-29T16:16:30;6.30;;;1.88;;
58460;SDS011;45558;37.752;-97.822;2023-05-29T16:18:57;9.30;;;2.58;;
58460;SDS011;45558;37.752;-97.822;2023-05-29T16:21:24;8.80;;;2.42;;
58460;SDS011;45558;37.752;-97.822;2023-05-29T16:23:50;8.80;;;1.88;;
58460;SDS011;45558;37.752;-97.822;2023-05-29T16:26:22;14.45;;;2.55;;
58460;SDS011;45558;37.752;-97.822;2023-05-29T16:28:47;8.10;;;1.88;;
58460;SDS011;45558;37.752;-97.822;2023-05-29T16:31:13;9.73;;;2.38;;
58460;SDS011;45558;37.752;-97.822;2023-05-29T16:33:39;10.32;;;2.80;;
58460;SDS011;45558;37.752;-97.822;2023-05-29T16:36:05;6.63;;;1.80;;
58460;SDS011;45558;37.752;-97.822;2023-05-29T16:38:32;7.97;;;2.00;;
58460;SDS011;45558;37.752;-97.822;2023-05-29T16:40:58;11.25;;;2.20;;
58460;SDS011;45558;37.752;-97.822;2023-05-29T16:43:23;8.13;;;2.03;;
58460;SDS011;45558;37.752;-97.822;2023-05-29T16:45:50;6.78;;;2.22;;
58460;SDS011;45558;37.752;-97.822;2023-05-29T16:48:16;6.40;;;2.20;;
58460;SDS011;45558;37.752;-97.822;2023-05-29T16:50:42;8.75;;;2.72;;
58460;SDS011;45558;37.752;-97.822;2023-05-29T16:53:08;9.80;;;2.13;;
58460;SDS011;45558;37.752;-97.822;2023-05-29T16:55:34;11.23;;;2.15;;
58460;SDS011;45558;37.752;-97.822;2023-05-29T16:58:00;9.48;;;2.20;;
58460;SDS011;45558;37.752;-97.822;2023-05-29T17:00:26;10.85;;;2.30;;
58460;SDS011;45558;37.752;-97.822;2023-05-29T17:02:52;6.85;;;2.45;;
58460;SDS011;45558;37.752;-97.822;2023-05-29T17:05:17;6.20;;;2.17;;
58460;SDS011;45558;37.752;-97.822;2023-05-29T17:07:43;10.50;;;2.78;;
58460;SDS011;45558;37.752;-97.822;2023-05-29T17:10:09;13.23;;;2.30;;
58460;SDS011;45558;37.752;-97.822;2023-05-29T17:12:35;8.10;;;2.40;;
58460;SDS011;45558;37.752;-97.822;2023-05-29T17:15:02;6.60;;;2.20;;
58460;SDS011;45558;37.752;-97.822;2023-05-29T17:17:28;11.93;;;2.72;;
58460;SDS011;45558;37.752;-97.822;2023-05-29T17:19:54;5.85;;;1.90;;
58460;SDS011;45558;37.752;-97.822;2023-05-29T17:22:20;9.82;;;2.53;;
58460;SDS011;45558;37.752;-97.822;2023-05-29T17:24:46;5.88;;;1.77;;
58460;SDS011;45558;37.752;-97.822;2023-05-29T17:27:11;7.05;;;2.10;;
58460;SDS011;45558;37.752;-97.822;2023-05-29T17:29:37;7.20;;;1.75;;
58460;SDS011;45558;37.752;-97.822;2023-05-29T17:32:03;9.35;;;2.20;;
58460;SDS011;45558;37.752;-97.822;2023-05-29T17:34:31;7.90;;;1.95;;
58460;SDS011;45558;37.752;-97.822;2023-05-29T17:36:57;3.90;;;2.05;;
58460;SDS011;45558;37.752;-97.822;2023-05-29T17:39:22;6.45;;;1.80;;
58460;SDS011;45558;37.752;-97.822;2023-05-29T17:41:48;9.48;;;1.73;;
58460;SDS011;45558;37.752;-97.822;2023-05-29T17:44:14;9.70;;;2.42;;
58460;SDS011;45558;37.752;-97.822;2023-05-29T17:46:40;26.45;;;3.22;;
58460;SDS011;45558;37.752;-97.822;2023-05-29T17:49:06;9.10;;;2.33;;
58460;SDS011;45558;37.752;-97.822;2023-05-29T17:51:32;9.63;;;2.00;;
58460;SDS011;45558;37.752;-97.822;2023-05-29T17:53:57;7.70;;;2.15;;
58460;SDS011;45558;37.752;-97.822;2023-05-29T17:56:23;6.30;;;2.13;;
58460;SDS011;45558;37.752;-97.822;2023-05-29T17:58:50;7.65;;;2.20;;
58460;SDS011;45558;37.752;-97.822;2023-05-29T18:01:16;9.23;;;2.38;;
58460;SDS011;45558;37.752;-97.822;2023-05-29T18:03:42;7.05;;;1.98;;
58460;SDS011;45558;37.752;-97.822;2023-05-29T18:06:08;8.55;;;2.15;;
58460;SDS011;45558;37.752;-97.822;2023-05-29T18:08:34;10.98;;;2.20;;
58460;SDS011;45558;37.752;-97.822;2023-05-29T18:11:01;6.53;;;2.25;;
58460;SDS011;45558;37.752;-97.822;2023-05-29T18:13:27;12.50;;;2.53;;
58460;SDS011;45558;37.752;-97.822;2023-05-29T18:19:15;8.00;;;1.80;;
58460;SDS011;45558;37.752;-97.822;2023-05-29T18:21:41;5.97;;;2.08;;
58460;SDS011;45558;37.752;-97.822;2023-05-29T18:24:06;8.48;;;2.58;;
58460;SDS011;45558;37.752;-97.822;2023-05-29T18:26:35;6.18;;;1.67;;
58460;SDS011;45558;37.752;-97.822;2023-05-29T18:29:01;9.02;;;2.30;;
58460;SDS011;45558;37.752;-97.822;2023-05-29T18:31:27;9.18;;;2.15;;
58460;SDS011;45558;37.752;-97.822;2023-05-29T18:33:55;9.32;;;2.33;;
58460;SDS011;45558;37.752;-97.822;2023-05-29T18:36:21;7.93;;;1.98;;
58460;SDS011;45558;37.752;-97.822;2023-05-29T18:38:47;5.60;;;1.73;;
58460;SDS011;45558;37.752;-97.822;2023-05-29T18:41:15;5.32;;;2.03;;
58460;SDS011;45558;37.752;-97.822;2023-05-29T18:43:40;8.02;;;2.08;;
58460;SDS011;45558;37.752;-97.822;2023-05-29T18:46:06;6.13;;;2.05;;
58460;SDS011;45558;37.752;-97.822;2023-05-29T18:48:32;7.03;;;1.73;;
58460;SDS011;45558;37.752;-97.822;2023-05-29T18:50:58;7.05;;;2.15;;
58460;SDS011;45558;37.752;-97.822;2023-05-29T18:53:26;11.45;;;2.63;;
58460;SDS011;45558;37.752;-97.822;2023-05-29T18:55:51;8.25;;;2.10;;
58460;SDS011;45558;37.752;-97.822;2023-05-29T18:58:17;7.80;;;2.35;;
58460;SDS011;45558;37.752;-97.822;2023-05-29T19:00:44;9.45;;;2.65;;
58460;SDS011;45558;37.752;-97.822;2023-05-29T19:03:10;6.07;;;1.67;;
58460;SDS011;45558;37.752;-97.822;2023-05-29T19:05:36;10.18;;;2.97;;
58460;SDS011;45558;37.752;-97.822;2023-05-29T19:08:02;9.80;;;2.15;;
58460;SDS011;45558;37.752;-97.822;2023-05-29T19:10:32;13.32;;;2.33;;
58460;SDS011;45558;37.752;-97.822;2023-05-29T19:12:58;5.18;;;1.85;;
58460;SDS011;45558;37.752;-97.822;2023-05-29T19:15:24;15.43;;;4.15;;
58460;SDS011;45558;37.752;-97.822;2023-05-29T19:17:49;9.05;;;2.00;;
58460;SDS011;45558;37.752;-97.822;2023-05-29T19:20:15;8.10;;;2.42;;
58460;SDS011;45558;37.752;-97.822;2023-05-29T19:22:41;6.45;;;3.40;;
58460;SDS011;45558;37.752;-97.822;2023-05-29T19:25:14;9.43;;;2.05;;
58460;SDS011;45558;37.752;-97.822;2023-05-29T19:27:40;7.68;;;1.95;;
58460;SDS011;45558;37.752;-97.822;2023-05-29T19:30:05;9.45;;;2.83;;
58460;SDS011;45558;37.752;-97.822;2023-05-29T19:32:32;7.82;;;2.13;;
58460;SDS011;45558;37.752;-97.822;2023-05-29T19:34:58;10.85;;;2.35;;
58460;SDS011;45558;37.752;-97.822;2023-05-29T19:37:24;8.88;;;2.25;;
58460;SDS011;45558;37.752;-97.822;2023-05-29T19:39:49;9.00;;;2.33;;
58460;SDS011;45558;37.752;-97.822;2023-05-29T19:42:17;8.68;;;1.75;;
58460;SDS011;45558;37.752;-97.822;2023-05-29T19:44:46;8.93;;;2.35;;
58460;SDS011;45558;37.752;-97.822;2023-05-29T19:47:12;8.02;;;2.05;;
58460;SDS011;45558;37.752;-97.822;2023-05-29T19:49:38;8.75;;;1.52;;
58460;SDS011;45558;37.752;-97.822;2023-05-29T19:52:04;19.42;;;2.80;;
58460;SDS011;45558;37.752;-97.822;2023-05-29T19:54:33;8.07;;;2.22;;
58460;SDS011;45558;37.752;-97.822;2023-05-29T19:56:58;7.85;;;2.40;;
58460;SDS011;45558;37.752;-97.822;2023-05-29T19:59:25;13.50;;;2.55;;
58460;SDS011;45558;37.752;-97.822;2023-05-29T20:01:50;9.80;;;2.65;;
58460;SDS011;45558;37.752;-97.822;2023-05-29T20:04:16;5.97;;;2.03;;
58460;SDS011;45558;37.752;-97.822;2023-05-29T20:06:42;11.48;;;2.53;;
58460;SDS011;45558;37.752;-97.822;2023-05-29T20:09:07;8.50;;;2.30;;
58460;SDS011;45558;37.752;-97.822;2023-05-29T20:11:34;9.75;;;2.00;;
58460;SDS011;45558;37.752;-97.822;2023-05-29T20:14:00;7.35;;;2.28;;
58460;SDS011;45558;37.752;-97.822;2023-05-29T20:16:26;61.78;;;4.32;;
58460;SDS011;45558;37.752;-97.822;2023-05-29T20:18:53;17.38;;;2.38;;
58460;SDS011;45558;37.752;-97.822;2023-05-29T20:21:18;7.15;;;2.45;;
58460;SDS011;45558;37.752;-97.822;2023-05-29T20:23:44;14.70;;;5.38;;
58460;SDS011;45558;37.752;-97.822;2023-05-29T20:26:10;10.45;;;2.70;;
58460;SDS011;45558;37.752;-97.822;2023-05-29T20:28:37;69.20;;;26.35;;
58460;SDS011;45558;37.752;-97.822;2023-05-29T20:31:02;48.53;;;18.00;;
58460;SDS011;45558;37.752;-97.822;2023-05-29T20:33:28;22.00;;;7.32;;
58460;SDS011;45558;37.752;-97.822;2023-05-29T20:35:54;13.80;;;2.85;;
58460;SDS011;45558;37.752;-97.822;2023-05-29T20:38:23;12.02;;;2.63;;
58460;SDS011;45558;37.752;-97.822;2023-05-29T20:40:49;9.65;;;2.47;;
58460;SDS011;45558;37.752;-97.822;2023-05-29T20:43:17;8.70;;;2.42;;
58460;SDS011;45558;37.752;-97.822;2023-05-29T20:45:47;7.35;;;2.22;;
58460;SDS011;45558;37.752;-97.822;2023-05-29T20:50:46;8.70;;;2.63;;
58460;SDS011;45558;37.752;-97.822;2023-05-29T20:53:12;8.32;;;2.20;;
58460;SDS011;45558;37.752;-97.822;2023-05-29T20:55:38;14.05;;;2.95;;
58460;SDS011;45558;37.752;-97.822;2023-05-29T20:58:04;10.05;;;2.58;;
58460;SDS011;45558;37.752;-97.822;2023-05-29T21:00:31;9.85;;;2.60;;
58460;SDS011;45558;37.752;-97.822;2023-05-29T21:02:58;7.20;;;2.05;;
58460;SDS011;45558;37.752;-97.822;2023-05-29T21:05:24;8.00;;;2.60;;
58460;SDS011;45558;37.752;-97.822;2023-05-29T21:07:51;10.88;;;2.60;;
58460;SDS011;45558;37.752;-97.822;2023-05-29T21:10:17;9.98;;;2.40;;
58460;SDS011;45558;37.752;-97.822;2023-05-29T21:12:43;14.13;;;3.53;;
58460;SDS011;45558;37.752;-97.822;2023-05-29T21:15:09;13.93;;;3.10;;
58460;SDS011;45558;37.752;-97.822;2023-05-29T21:17:35;14.07;;;4.63;;
58460;SDS011;45558;37.752;-97.822;2023-05-29T21:20:01;15.90;;;6.65;;
58460;SDS011;45558;37.752;-97.822;2023-05-29T21:22:28;16.02;;;5.80;;
58460;SDS011;45558;37.752;-97.822;2023-05-29T21:24:54;17.00;;;6.60;;
58460;SDS011;45558;37.752;-97.822;2023-05-29T21:27:21;18.95;;;7.13;;
58460;SDS011;45558;37.752;-97.822;2023-05-29T21:29:48;11.48;;;5.55;;
58460;SDS011;45558;37.752;-97.822;2023-05-29T21:32:14;14.02;;;4.22;;
58460;SDS011;45558;37.752;-97.822;2023-05-29T21:34:40;16.65;;;4.72;;
58460;SDS011;45558;37.752;-97.822;2023-05-29T21:37:06;33.72;;;13.10;;
58460;SDS011;45558;37.752;-97.822;2023-05-29T21:39:32;26.02;;;10.30;;
58460;SDS011;45558;37.752;-97.822;2023-05-29T21:41:58;30.58;;;16.50;;
58460;SDS011;45558;37.752;-97.822;2023-05-29T21:47:45;19.52;;;8.27;;
58460;SDS011;45558;37.752;-97.822;2023-05-29T21:50:11;15.80;;;4.95;;
58460;SDS011;45558;37.752;-97.822;2023-05-29T21:52:39;8.98;;;3.33;;
58460;SDS011;45558;37.752;-97.822;2023-05-29T21:55:06;11.20;;;3.20;;
58460;SDS011;45558;37.752;-97.822;2023-05-29T21:57:32;15.88;;;4.03;;
58460;SDS011;45558;37.752;-97.822;2023-05-29T21:59:57;13.25;;;3.40;;
58460;SDS011;45558;37.752;-97.822;2023-05-29T22:02:23;14.18;;;3.83;;
58460;SDS011;45558;37.752;-97.822;2023-05-29T22:04:50;12.45;;;3.70;;
58460;SDS011;45558;37.752;-97.822;2023-05-29T22:07:16;17.73;;;4.30;;
58460;SDS011;45558;37.752;-97.822;2023-05-29T22:09:41;13.98;;;3.60;;
58460;SDS011;45558;37.752;-97.822;2023-05-29T22:12:07;14.40;;;3.33;;
58460;SDS011;45558;37.752;-97.822;2023-05-29T22:14:33;10.85;;;3.88;;
58460;SDS011;45558;37.752;-97.822;2023-05-29T22:16:59;13.45;;;3.00;;
58460;SDS011;45558;37.752;-97.822;2023-05-29T22:19:26;6.18;;;2.60;;